sensor_id;sensor_type;location;lat;lon;timestamp;P1;durP1;ratioP1;P2;durP2;ratioP2
18206;SDS011;9229;52.354;20.886;2022-11-20T00:04:38;36.50;;;16.52;;
18206;SDS011;9229;52.354;20.886;2022-11-20T00:09:40;40.92;;;16.13;;
18206;SDS011;9229;52.354;20.886;2022-11-20T00:14:43;41.38;;;17.33;;
18206;SDS011;9229;52.354;20.886;2022-11-20T00:19:45;41.78;;;16.27;;
18206;SDS011;9229;52.354;20.886;2022-11-20T00:24:47;35.80;;;15.80;;
18206;SDS011;9229;52.354;20.886;2022-11-20T00:29:50;38.72;;;16.23;;
18206;SDS011;9229;52.354;20.886;2022-11-20T00:34:52;38.63;;;16.85;;
18206;SDS011;9229;52.354;20.886;2022-11-20T00:39:54;34.63;;;16.52;;
18206;SDS011;9229;52.354;20.886;2022-11-20T00:44:58;46.90;;;19.67;;
18206;SDS011;9229;52.354;20.886;2022-11-20T00:50:00;48.58;;;18.17;;
18206;SDS011;9229;52.354;20.886;2022-11-20T00:55:02;41.03;;;17.65;;
18206;SDS011;9229;52.354;20.886;2022-11-20T01:00:07;37.45;;;16.55;;
18206;SDS011;9229;52.354;20.886;2022-11-20T01:05:09;46.67;;;18.25;;
18206;SDS011;9229;52.354;20.886;2022-11-20T01:10:11;48.00;;;18.95;;
18206;SDS011;9229;52.354;20.886;2022-11-20T01:15:15;44.92;;;18.08;;
18206;SDS011;9229;52.354;20.886;2022-11-20T01:20:17;60.65;;;20.85;;
18206;SDS011;9229;52.354;20.886;2022-11-20T01:25:19;49.15;;;20.20;;
18206;SDS011;9229;52.354;20.886;2022-11-20T01:30:23;40.20;;;18.42;;
18206;SDS011;9229;52.354;20.886;2022-11-20T01:35:25;33.63;;;15.75;;
18206;SDS011;9229;52.354;20.886;2022-11-20T01:40:26;40.40;;;16.77;;
18206;SDS011;9229;52.354;20.886;2022-11-20T01:45:45;42.15;;;16.20;;
18206;SDS011;9229;52.354;20.886;2022-11-20T01:51:05;34.38;;;15.30;;
18206;SDS011;9229;52.354;20.886;2022-11-20T01:56:13;44.05;;;16.88;;
18206;SDS011;9229;52.354;20.886;2022-11-20T02:01:17;45.15;;;17.70;;
18206;SDS011;9229;52.354;20.886;2022-11-20T02:06:21;36.92;;;15.77;;
18206;SDS011;9229;52.354;20.886;2022-11-20T02:11:25;31.05;;;15.00;;
18206;SDS011;9229;52.354;20.886;2022-11-20T02:16:30;45.67;;;17.00;;
18206;SDS011;9229;52.354;20.886;2022-11-20T02:21:35;37.92;;;15.02;;
18206;SDS011;9229;52.354;20.886;2022-11-20T02:26:44;30.30;;;15.27;;
18206;SDS011;9229;52.354;20.886;2022-11-20T02:31:50;34.67;;;14.98;;
18206;SDS011;9229;52.354;20.886;2022-11-20T02:36:54;46.30;;;17.35;;
18206;SDS011;9229;52.354;20.886;2022-11-20T02:42:00;37.63;;;16.20;;
18206;SDS011;9229;52.354;20.886;2022-11-20T02:47:02;33.70;;;15.18;;
18206;SDS011;9229;52.354;20.886;2022-11-20T02:52:04;37.50;;;16.48;;
18206;SDS011;9229;52.354;20.886;2022-11-20T02:57:07;33.75;;;16.10;;
18206;SDS011;9229;52.354;20.886;2022-11-20T03:02:09;47.90;;;17.67;;
18206;SDS011;9229;52.354;20.886;2022-11-20T03:07:11;40.17;;;15.25;;
18206;SDS011;9229;52.354;20.886;2022-11-20T03:12:15;35.88;;;16.50;;
18206;SDS011;9229;52.354;20.886;2022-11-20T03:17:16;40.65;;;15.18;;
18206;SDS011;9229;52.354;20.886;2022-11-20T03:22:18;39.30;;;17.58;;
18206;SDS011;9229;52.354;20.886;2022-11-20T03:27:23;37.20;;;16.40;;
18206;SDS011;9229;52.354;20.886;2022-11-20T03:32:25;32.35;;;16.02;;
18206;SDS011;9229;52.354;20.886;2022-11-20T03:37:27;33.70;;;15.95;;
18206;SDS011;9229;52.354;20.886;2022-11-20T03:42:30;35.58;;;15.63;;
18206;SDS011;9229;52.354;20.886;2022-11-20T03:47:48;35.03;;;16.65;;
18206;SDS011;9229;52.354;20.886;2022-11-20T03:52:50;38.42;;;16.05;;
18206;SDS011;9229;52.354;20.886;2022-11-20T03:57:54;38.75;;;15.45;;
18206;SDS011;9229;52.354;20.886;2022-11-20T04:02:57;31.80;;;16.23;;
18206;SDS011;9229;52.354;20.886;2022-11-20T04:07:59;34.17;;;14.90;;
18206;SDS011;9229;52.354;20.886;2022-11-20T04:13:02;37.10;;;15.07;;
18206;SDS011;9229;52.354;20.886;2022-11-20T04:18:04;36.75;;;15.40;;
18206;SDS011;9229;52.354;20.886;2022-11-20T04:23:07;32.15;;;14.75;;
18206;SDS011;9229;52.354;20.886;2022-11-20T04:28:10;32.00;;;14.40;;
18206;SDS011;9229;52.354;20.886;2022-11-20T04:33:12;36.88;;;15.48;;
18206;SDS011;9229;52.354;20.886;2022-11-20T04:38:14;38.95;;;15.65;;
18206;SDS011;9229;52.354;20.886;2022-11-20T04:43:17;34.65;;;14.80;;
18206;SDS011;9229;52.354;20.886;2022-11-20T04:48:19;36.65;;;17.23;;
18206;SDS011;9229;52.354;20.886;2022-11-20T04:53:21;41.47;;;17.40;;
18206;SDS011;9229;52.354;20.886;2022-11-20T04:58:26;40.15;;;18.00;;
18206;SDS011;9229;52.354;20.886;2022-11-20T05:03:28;40.00;;;16.75;;
18206;SDS011;9229;52.354;20.886;2022-11-20T05:08:30;38.95;;;18.27;;
18206;SDS011;9229;52.354;20.886;2022-11-20T05:13:34;47.47;;;18.67;;
18206;SDS011;9229;52.354;20.886;2022-11-20T05:18:37;37.25;;;17.30;;
18206;SDS011;9229;52.354;20.886;2022-11-20T05:23:40;36.03;;;15.80;;
18206;SDS011;9229;52.354;20.886;2022-11-20T05:28:44;44.17;;;18.02;;
18206;SDS011;9229;52.354;20.886;2022-11-20T05:33:46;42.80;;;16.27;;
18206;SDS011;9229;52.354;20.886;2022-11-20T05:38:48;46.75;;;16.98;;
18206;SDS011;9229;52.354;20.886;2022-11-20T05:43:51;39.90;;;17.05;;
18206;SDS011;9229;52.354;20.886;2022-11-20T05:48:53;38.92;;;17.17;;
18206;SDS011;9229;52.354;20.886;2022-11-20T05:53:56;42.20;;;14.45;;
18206;SDS011;9229;52.354;20.886;2022-11-20T05:59:01;39.42;;;15.52;;
18206;SDS011;9229;52.354;20.886;2022-11-20T06:04:02;29.95;;;13.82;;
18206;SDS011;9229;52.354;20.886;2022-11-20T06:09:05;38.33;;;15.05;;
18206;SDS011;9229;52.354;20.886;2022-11-20T06:14:08;45.10;;;16.92;;
18206;SDS011;9229;52.354;20.886;2022-11-20T06:19:10;43.00;;;16.77;;
18206;SDS011;9229;52.354;20.886;2022-11-20T06:24:12;33.60;;;15.23;;
18206;SDS011;9229;52.354;20.886;2022-11-20T06:29:15;35.90;;;16.10;;
18206;SDS011;9229;52.354;20.886;2022-11-20T06:34:17;42.33;;;16.25;;
18206;SDS011;9229;52.354;20.886;2022-11-20T06:39:19;33.67;;;15.65;;
18206;SDS011;9229;52.354;20.886;2022-11-20T06:44:22;33.45;;;16.63;;
18206;SDS011;9229;52.354;20.886;2022-11-20T06:49:24;41.67;;;17.40;;
18206;SDS011;9229;52.354;20.886;2022-11-20T06:54:27;35.58;;;15.57;;
18206;SDS011;9229;52.354;20.886;2022-11-20T06:59:30;46.33;;;15.85;;
18206;SDS011;9229;52.354;20.886;2022-11-20T07:04:32;37.83;;;15.88;;
18206;SDS011;9229;52.354;20.886;2022-11-20T07:09:34;38.83;;;15.75;;
18206;SDS011;9229;52.354;20.886;2022-11-20T07:14:37;34.20;;;15.70;;
18206;SDS011;9229;52.354;20.886;2022-11-20T07:19:42;42.58;;;18.27;;
18206;SDS011;9229;52.354;20.886;2022-11-20T07:24:46;37.78;;;17.05;;
18206;SDS011;9229;52.354;20.886;2022-11-20T07:29:49;38.67;;;16.70;;
18206;SDS011;9229;52.354;20.886;2022-11-20T07:34:51;51.03;;;19.00;;
18206;SDS011;9229;52.354;20.886;2022-11-20T07:39:53;37.72;;;16.00;;
18206;SDS011;9229;52.354;20.886;2022-11-20T07:44:57;47.33;;;16.88;;
18206;SDS011;9229;52.354;20.886;2022-11-20T07:49:58;39.05;;;17.15;;
18206;SDS011;9229;52.354;20.886;2022-11-20T07:55:02;39.97;;;19.08;;
18206;SDS011;9229;52.354;20.886;2022-11-20T08:00:07;47.00;;;19.45;;
18206;SDS011;9229;52.354;20.886;2022-11-20T08:05:13;32.95;;;16.20;;
18206;SDS011;9229;52.354;20.886;2022-11-20T08:10:15;43.97;;;17.33;;
18206;SDS011;9229;52.354;20.886;2022-11-20T08:15:19;41.47;;;17.80;;
18206;SDS011;9229;52.354;20.886;2022-11-20T08:20:21;44.03;;;19.23;;
18206;SDS011;9229;52.354;20.886;2022-11-20T08:25:23;44.70;;;19.48;;
18206;SDS011;9229;52.354;20.886;2022-11-20T08:30:27;53.53;;;20.40;;
18206;SDS011;9229;52.354;20.886;2022-11-20T08:35:32;48.08;;;19.02;;
18206;SDS011;9229;52.354;20.886;2022-11-20T08:40:34;48.58;;;20.40;;
18206;SDS011;9229;52.354;20.886;2022-11-20T08:45:37;51.72;;;19.48;;
18206;SDS011;9229;52.354;20.886;2022-11-20T08:50:39;44.35;;;19.83;;
18206;SDS011;9229;52.354;20.886;2022-11-20T08:55:42;43.83;;;19.80;;
18206;SDS011;9229;52.354;20.886;2022-11-20T09:00:48;40.20;;;19.40;;
18206;SDS011;9229;52.354;20.886;2022-11-20T09:05:56;42.85;;;18.40;;
18206;SDS011;9229;52.354;20.886;2022-11-20T09:10:58;48.20;;;19.75;;
18206;SDS011;9229;52.354;20.886;2022-11-20T09:16:02;44.35;;;17.95;;
18206;SDS011;9229;52.354;20.886;2022-11-20T09:21:10;49.65;;;20.23;;
18206;SDS011;9229;52.354;20.886;2022-11-20T09:26:14;49.20;;;19.25;;
18206;SDS011;9229;52.354;20.886;2022-11-20T09:31:19;51.08;;;18.88;;
18206;SDS011;9229;52.354;20.886;2022-11-20T09:36:24;54.05;;;21.13;;
18206;SDS011;9229;52.354;20.886;2022-11-20T09:41:31;47.97;;;20.27;;
18206;SDS011;9229;52.354;20.886;2022-11-20T09:46:55;46.15;;;19.85;;
18206;SDS011;9229;52.354;20.886;2022-11-20T09:52:05;46.10;;;19.65;;
18206;SDS011;9229;52.354;20.886;2022-11-20T09:57:18;50.55;;;21.15;;
18206;SDS011;9229;52.354;20.886;2022-11-20T10:02:27;47.03;;;22.05;;
18206;SDS011;9229;52.354;20.886;2022-11-20T10:07:33;52.83;;;21.30;;
18206;SDS011;9229;52.354;20.886;2022-11-20T10:12:48;51.15;;;21.67;;
18206;SDS011;9229;52.354;20.886;2022-11-20T10:23:31;52.17;;;21.23;;
18206;SDS011;9229;52.354;20.886;2022-11-20T10:28:48;51.08;;;19.42;;
18206;SDS011;9229;52.354;20.886;2022-11-20T10:34:05;57.47;;;21.27;;
18206;SDS011;9229;52.354;20.886;2022-11-20T10:39:12;47.05;;;20.63;;
18206;SDS011;9229;52.354;20.886;2022-11-20T10:44:20;53.47;;;21.45;;
18206;SDS011;9229;52.354;20.886;2022-11-20T10:49:43;51.58;;;20.80;;
18206;SDS011;9229;52.354;20.886;2022-11-20T10:54:52;56.78;;;22.00;;
18206;SDS011;9229;52.354;20.886;2022-11-20T11:00:01;50.47;;;21.45;;
18206;SDS011;9229;52.354;20.886;2022-11-20T11:05:18;30.88;;;16.98;;
18206;SDS011;9229;52.354;20.886;2022-11-20T11:10:31;46.50;;;18.50;;
18206;SDS011;9229;52.354;20.886;2022-11-20T11:15:38;45.28;;;19.45;;
18206;SDS011;9229;52.354;20.886;2022-11-20T11:20:49;47.70;;;20.20;;
18206;SDS011;9229;52.354;20.886;2022-11-20T11:25:56;35.28;;;18.20;;
18206;SDS011;9229;52.354;20.886;2022-11-20T11:30:59;47.80;;;19.20;;
18206;SDS011;9229;52.354;20.886;2022-11-20T11:36:03;40.97;;;18.20;;
18206;SDS011;9229;52.354;20.886;2022-11-20T11:41:20;44.60;;;19.50;;
18206;SDS011;9229;52.354;20.886;2022-11-20T11:46:28;40.25;;;18.38;;
18206;SDS011;9229;52.354;20.886;2022-11-20T11:51:36;49.13;;;19.73;;
18206;SDS011;9229;52.354;20.886;2022-11-20T11:56:47;43.45;;;17.60;;
18206;SDS011;9229;52.354;20.886;2022-11-20T12:01:51;41.60;;;17.63;;
18206;SDS011;9229;52.354;20.886;2022-11-20T12:07:00;37.92;;;17.10;;
18206;SDS011;9229;52.354;20.886;2022-11-20T12:12:08;47.25;;;19.80;;
18206;SDS011;9229;52.354;20.886;2022-11-20T12:17:15;41.80;;;17.67;;
18206;SDS011;9229;52.354;20.886;2022-11-20T12:22:24;38.17;;;17.73;;
18206;SDS011;9229;52.354;20.886;2022-11-20T12:33:08;36.67;;;17.33;;
18206;SDS011;9229;52.354;20.886;2022-11-20T12:38:34;37.72;;;17.95;;
18206;SDS011;9229;52.354;20.886;2022-11-20T12:44:01;51.17;;;18.70;;
18206;SDS011;9229;52.354;20.886;2022-11-20T12:49:32;47.00;;;18.08;;
18206;SDS011;9229;52.354;20.886;2022-11-20T12:54:54;34.53;;;16.80;;
18206;SDS011;9229;52.354;20.886;2022-11-20T13:00:12;34.45;;;15.50;;
18206;SDS011;9229;52.354;20.886;2022-11-20T13:05:20;42.63;;;17.85;;
18206;SDS011;9229;52.354;20.886;2022-11-20T13:10:30;40.90;;;17.20;;
18206;SDS011;9229;52.354;20.886;2022-11-20T13:15:40;38.30;;;16.58;;
18206;SDS011;9229;52.354;20.886;2022-11-20T13:20:50;45.70;;;17.02;;
18206;SDS011;9229;52.354;20.886;2022-11-20T13:26:03;45.35;;;18.13;;
18206;SDS011;9229;52.354;20.886;2022-11-20T13:31:09;48.40;;;18.80;;
18206;SDS011;9229;52.354;20.886;2022-11-20T13:36:26;47.05;;;17.52;;
18206;SDS011;9229;52.354;20.886;2022-11-20T13:41:31;50.33;;;19.33;;
18206;SDS011;9229;52.354;20.886;2022-11-20T13:46:38;47.90;;;17.45;;
18206;SDS011;9229;52.354;20.886;2022-11-20T13:51:43;51.17;;;17.98;;
18206;SDS011;9229;52.354;20.886;2022-11-20T13:56:50;42.97;;;17.05;;
18206;SDS011;9229;52.354;20.886;2022-11-20T14:02:03;42.88;;;17.95;;
18206;SDS011;9229;52.354;20.886;2022-11-20T14:07:11;45.83;;;19.35;;
18206;SDS011;9229;52.354;20.886;2022-11-20T14:12:15;45.10;;;16.95;;
18206;SDS011;9229;52.354;20.886;2022-11-20T14:17:20;51.75;;;20.55;;
18206;SDS011;9229;52.354;20.886;2022-11-20T14:22:24;54.65;;;21.58;;
18206;SDS011;9229;52.354;20.886;2022-11-20T14:27:28;48.00;;;19.90;;
18206;SDS011;9229;52.354;20.886;2022-11-20T14:32:30;51.97;;;21.42;;
18206;SDS011;9229;52.354;20.886;2022-11-20T14:37:33;56.30;;;22.73;;
18206;SDS011;9229;52.354;20.886;2022-11-20T14:42:43;49.88;;;20.58;;
18206;SDS011;9229;52.354;20.886;2022-11-20T14:47:46;56.28;;;21.33;;
18206;SDS011;9229;52.354;20.886;2022-11-20T14:52:49;51.25;;;21.98;;
18206;SDS011;9229;52.354;20.886;2022-11-20T14:57:58;59.05;;;22.42;;
18206;SDS011;9229;52.354;20.886;2022-11-20T15:03:02;55.17;;;21.45;;
18206;SDS011;9229;52.354;20.886;2022-11-20T15:08:05;56.40;;;22.80;;
18206;SDS011;9229;52.354;20.886;2022-11-20T15:13:12;116.80;;;27.45;;
18206;SDS011;9229;52.354;20.886;2022-11-20T15:18:18;62.40;;;21.02;;
18206;SDS011;9229;52.354;20.886;2022-11-20T15:23:22;57.88;;;21.90;;
18206;SDS011;9229;52.354;20.886;2022-11-20T15:28:27;59.30;;;21.38;;
18206;SDS011;9229;52.354;20.886;2022-11-20T15:33:32;58.63;;;23.13;;
18206;SDS011;9229;52.354;20.886;2022-11-20T15:38:34;68.53;;;23.42;;
18206;SDS011;9229;52.354;20.886;2022-11-20T15:43:41;67.60;;;22.98;;
18206;SDS011;9229;52.354;20.886;2022-11-20T15:48:43;74.65;;;23.58;;
18206;SDS011;9229;52.354;20.886;2022-11-20T15:53:46;66.63;;;24.52;;
18206;SDS011;9229;52.354;20.886;2022-11-20T15:58:50;85.55;;;26.38;;
18206;SDS011;9229;52.354;20.886;2022-11-20T16:03:52;70.82;;;27.75;;
18206;SDS011;9229;52.354;20.886;2022-11-20T16:08:53;80.90;;;24.95;;
18206;SDS011;9229;52.354;20.886;2022-11-20T16:13:59;60.15;;;23.17;;
18206;SDS011;9229;52.354;20.886;2022-11-20T16:19:19;68.53;;;23.33;;
18206;SDS011;9229;52.354;20.886;2022-11-20T16:24:21;75.97;;;26.42;;
18206;SDS011;9229;52.354;20.886;2022-11-20T16:29:25;80.85;;;25.00;;
18206;SDS011;9229;52.354;20.886;2022-11-20T16:34:27;102.97;;;25.08;;
18206;SDS011;9229;52.354;20.886;2022-11-20T16:39:29;77.80;;;23.98;;
18206;SDS011;9229;52.354;20.886;2022-11-20T16:44:32;97.65;;;29.23;;
18206;SDS011;9229;52.354;20.886;2022-11-20T16:49:34;57.35;;;22.27;;
18206;SDS011;9229;52.354;20.886;2022-11-20T16:54:36;47.53;;;19.85;;
18206;SDS011;9229;52.354;20.886;2022-11-20T16:59:40;50.85;;;20.55;;
18206;SDS011;9229;52.354;20.886;2022-11-20T17:04:41;53.88;;;21.83;;
18206;SDS011;9229;52.354;20.886;2022-11-20T17:09:43;53.38;;;20.05;;
18206;SDS011;9229;52.354;20.886;2022-11-20T17:14:47;48.88;;;19.92;;
18206;SDS011;9229;52.354;20.886;2022-11-20T17:19:48;50.13;;;18.92;;
18206;SDS011;9229;52.354;20.886;2022-11-20T17:24:50;45.28;;;20.33;;
18206;SDS011;9229;52.354;20.886;2022-11-20T17:29:54;55.03;;;20.63;;
18206;SDS011;9229;52.354;20.886;2022-11-20T17:34:58;45.03;;;19.25;;
18206;SDS011;9229;52.354;20.886;2022-11-20T17:39:59;64.18;;;23.35;;
18206;SDS011;9229;52.354;20.886;2022-11-20T17:45:03;54.65;;;21.75;;
18206;SDS011;9229;52.354;20.886;2022-11-20T17:50:06;59.40;;;23.02;;
18206;SDS011;9229;52.354;20.886;2022-11-20T17:55:08;57.53;;;20.95;;
18206;SDS011;9229;52.354;20.886;2022-11-20T18:00:12;51.80;;;21.45;;
18206;SDS011;9229;52.354;20.886;2022-11-20T18:05:16;49.92;;;21.42;;
18206;SDS011;9229;52.354;20.886;2022-11-20T18:10:18;51.20;;;19.95;;
18206;SDS011;9229;52.354;20.886;2022-11-20T18:15:21;47.60;;;19.48;;
18206;SDS011;9229;52.354;20.886;2022-11-20T18:20:23;49.78;;;19.88;;
18206;SDS011;9229;52.354;20.886;2022-11-20T18:25:25;41.30;;;17.33;;
18206;SDS011;9229;52.354;20.886;2022-11-20T18:30:29;45.78;;;19.08;;
18206;SDS011;9229;52.354;20.886;2022-11-20T18:35:31;46.30;;;20.70;;
18206;SDS011;9229;52.354;20.886;2022-11-20T18:40:33;50.83;;;20.75;;
18206;SDS011;9229;52.354;20.886;2022-11-20T18:45:37;60.65;;;25.95;;
18206;SDS011;9229;52.354;20.886;2022-11-20T18:50:38;52.40;;;21.50;;
18206;SDS011;9229;52.354;20.886;2022-11-20T18:55:40;50.28;;;22.27;;
18206;SDS011;9229;52.354;20.886;2022-11-20T19:00:43;53.97;;;22.25;;
18206;SDS011;9229;52.354;20.886;2022-11-20T19:05:45;59.78;;;22.40;;
18206;SDS011;9229;52.354;20.886;2022-11-20T19:10:47;54.10;;;21.63;;
18206;SDS011;9229;52.354;20.886;2022-11-20T19:15:50;48.97;;;20.25;;
18206;SDS011;9229;52.354;20.886;2022-11-20T19:20:52;57.35;;;21.42;;
18206;SDS011;9229;52.354;20.886;2022-11-20T19:25:58;59.22;;;20.90;;
18206;SDS011;9229;52.354;20.886;2022-11-20T19:31:03;49.30;;;21.10;;
18206;SDS011;9229;52.354;20.886;2022-11-20T19:36:09;48.95;;;20.83;;
18206;SDS011;9229;52.354;20.886;2022-11-20T19:41:13;48.35;;;19.95;;
18206;SDS011;9229;52.354;20.886;2022-11-20T19:46:17;67.05;;;24.48;;
18206;SDS011;9229;52.354;20.886;2022-11-20T19:51:20;62.88;;;23.08;;
18206;SDS011;9229;52.354;20.886;2022-11-20T19:56:24;58.08;;;23.02;;
18206;SDS011;9229;52.354;20.886;2022-11-20T20:01:29;61.17;;;21.48;;
18206;SDS011;9229;52.354;20.886;2022-11-20T20:06:31;53.53;;;20.35;;
18206;SDS011;9229;52.354;20.886;2022-11-20T20:11:34;55.67;;;21.77;;
18206;SDS011;9229;52.354;20.886;2022-11-20T20:16:37;51.00;;;20.67;;
18206;SDS011;9229;52.354;20.886;2022-11-20T20:21:39;58.50;;;22.85;;
18206;SDS011;9229;52.354;20.886;2022-11-20T20:26:42;56.58;;;23.70;;
18206;SDS011;9229;52.354;20.886;2022-11-20T20:31:45;53.63;;;22.40;;
18206;SDS011;9229;52.354;20.886;2022-11-20T20:36:46;62.47;;;22.15;;
18206;SDS011;9229;52.354;20.886;2022-11-20T20:41:49;65.88;;;22.70;;
18206;SDS011;9229;52.354;20.886;2022-11-20T20:46:53;75.50;;;24.95;;
18206;SDS011;9229;52.354;20.886;2022-11-20T20:51:55;81.40;;;30.40;;
18206;SDS011;9229;52.354;20.886;2022-11-20T20:56:57;77.95;;;29.77;;
18206;SDS011;9229;52.354;20.886;2022-11-20T21:02:00;73.97;;;27.85;;
18206;SDS011;9229;52.354;20.886;2022-11-20T21:07:02;76.03;;;28.33;;
18206;SDS011;9229;52.354;20.886;2022-11-20T21:12:04;73.53;;;27.02;;
18206;SDS011;9229;52.354;20.886;2022-11-20T21:17:08;68.10;;;24.15;;
18206;SDS011;9229;52.354;20.886;2022-11-20T21:22:10;78.60;;;28.90;;
18206;SDS011;9229;52.354;20.886;2022-11-20T21:27:12;63.70;;;24.60;;
18206;SDS011;9229;52.354;20.886;2022-11-20T21:32:15;70.15;;;25.77;;
18206;SDS011;9229;52.354;20.886;2022-11-20T21:37:17;58.10;;;23.50;;
18206;SDS011;9229;52.354;20.886;2022-11-20T21:42:19;65.47;;;24.15;;
18206;SDS011;9229;52.354;20.886;2022-11-20T21:47:22;60.58;;;22.77;;
18206;SDS011;9229;52.354;20.886;2022-11-20T21:52:24;50.85;;;22.15;;
18206;SDS011;9229;52.354;20.886;2022-11-20T21:57:26;69.47;;;25.13;;
18206;SDS011;9229;52.354;20.886;2022-11-20T22:02:29;74.07;;;26.23;;
18206;SDS011;9229;52.354;20.886;2022-11-20T22:07:31;76.22;;;27.10;;
18206;SDS011;9229;52.354;20.886;2022-11-20T22:12:32;75.53;;;27.75;;
18206;SDS011;9229;52.354;20.886;2022-11-20T22:17:36;82.53;;;29.25;;
18206;SDS011;9229;52.354;20.886;2022-11-20T22:23:00;61.25;;;26.63;;
18206;SDS011;9229;52.354;20.886;2022-11-20T22:28:02;76.60;;;28.30;;
18206;SDS011;9229;52.354;20.886;2022-11-20T22:33:06;72.50;;;25.05;;
18206;SDS011;9229;52.354;20.886;2022-11-20T22:38:08;62.50;;;24.85;;
18206;SDS011;9229;52.354;20.886;2022-11-20T22:43:10;77.00;;;27.02;;
18206;SDS011;9229;52.354;20.886;2022-11-20T22:48:13;72.55;;;27.00;;
18206;SDS011;9229;52.354;20.886;2022-11-20T22:53:15;82.30;;;29.67;;
18206;SDS011;9229;52.354;20.886;2022-11-20T22:58:18;70.13;;;27.88;;
18206;SDS011;9229;52.354;20.886;2022-11-20T23:03:21;67.13;;;26.23;;
18206;SDS011;9229;52.354;20.886;2022-11-20T23:08:23;84.32;;;28.08;;
18206;SDS011;9229;52.354;20.886;2022-11-20T23:13:25;82.65;;;29.48;;
18206;SDS011;9229;52.354;20.886;2022-11-20T23:18:28;80.18;;;28.13;;
18206;SDS011;9229;52.354;20.886;2022-11-20T23:23:30;75.82;;;26.92;;
18206;SDS011;9229;52.354;20.886;2022-11-20T23:28:32;78.20;;;30.42;;
18206;SDS011;9229;52.354;20.886;2022-11-20T23:33:36;81.03;;;30.80;;
18206;SDS011;9229;52.354;20.886;2022-11-20T23:38:39;79.72;;;28.80;;
18206;SDS011;9229;52.354;20.886;2022-11-20T23:43:41;79.43;;;28.45;;
18206;SDS011;9229;52.354;20.886;2022-11-20T23:48:44;90.55;;;30.08;;
18206;SDS011;9229;52.354;20.886;2022-11-20T23:53:46;82.00;;;30.40;;
18206;SDS011;9229;52.354;20.886;2022-11-20T23:58:49;74.80;;;28.92;;
